KLAX/LAX METAR and TAF weather

Enter ICAO airport designator
Station Type Date Time Source
KLAX METAR 2021/09/28 17:22 UTC NOAA

KLAX 281722Z VRB05KT 8SM SCT020 BKN034 BKN140 19/14 A2996 RMK AO2 T01940139


Station Type Date Time Source
KLAX Decoded METAR 2021/09/28 17:22 UTC NOAA

LOS ANGELES INTERNTL AIRPORT, CA, United States (KLAX) 33-56N 118-23W 46M
Sep 28, 2021 - 01:22 PM EDT / 2021.09.28 1722 UTC
Wind: Variable at 6 MPH (5 KT):0
Visibility: 8 mile(s):0
Sky conditions: mostly cloudy
Temperature: 66.9 F (19.4 C)
Dew Point: 57.0 F (13.9 C)
Relative Humidity: 70%
Pressure (altimeter): 29.96 in. Hg (1014 hPa)
ob: KLAX 281722Z VRB05KT 8SM SCT020 BKN034 BKN140 19/14 A2996 RMK AO2 T01940139
cycle: 17

Station Type Date Time Source
KLAX TAF 2021/09/28 18:27 UTC NOAA

TAF KLAX 281725Z 2818/2924 26004KT P6SM FEW013 BKN020 BKN035
FM282000 26012KT P6SM BKN040
FM290300 26007KT P6SM FEW040
FM290900 VRB03KT P6SM OVC025
FM291700 26006KT P6SM SCT025
FM292000 26012KT P6SM SCT030

Example: see airport list